Time;durP1;ratioP1;P1;durP2;ratioP2;P2;SDS_P1;SDS_P2;PMS_P1;PMS_P2;Temp;Humidity;BMP_temperature;BMP_pressure;BME280_temperature;BME280_humidity;BME280_pressure;Samples;Min_cycle;Max_cycle;Signal;HPM_P1;HPM_P2
2022/06/18 00:00:14;;;;;;;12.57;8.40;;;;;;;15.62;94.47;100173.09;5060459;28;20039;-82
2022/06/18 00:02:41;;;;;;;10.10;7.95;;;;;;;15.62;94.77;100167.84;5071176;28;20589;-82
2022/06/18 00:05:08;;;;;;;8.07;7.28;;;;;;;15.67;95.31;100171.94;5070969;28;20036;-83
2022/06/18 00:07:38;;;;;;;9.05;6.82;;;;;;;15.71;95.54;100177.81;5071044;28;20055;-83
2022/06/18 00:10:06;;;;;;;;;;;;;;;15.73;96.03;100173.34;5071347;28;20483;-83
2022/06/18 00:15:19;;;;;;;7.05;5.68;;;;;;;15.70;96.25;100168.25;5071536;28;20038;-82
2022/06/18 00:17:46;;;;;;;7.43;5.75;;;;;;;15.60;96.69;100165.31;5071141;28;20037;-82
2022/06/18 00:20:13;;;;;;;7.40;5.38;;;;;;;15.58;97.42;100163.69;5070773;28;20598;-82
2022/06/18 00:22:41;;;;;;;6.05;5.45;;;;;;;15.56;97.76;100163.81;5070809;28;20113;-82
2022/06/18 00:25:16;;;;;;;8.60;5.25;;;;;;;15.48;98.25;100160.78;5070975;28;20041;-83
2022/06/18 00:27:42;;;;;;;5.93;5.15;;;;;;;15.48;98.35;100163.41;5069827;28;20036;-83
2022/06/18 00:30:11;;;;;;;6.40;4.82;;;;;;;15.36;98.78;100146.59;5070512;28;20044;-82
2022/06/18 00:32:36;;;;;;;7.13;5.00;;;;;;;15.43;99.18;100152.34;5070798;28;20024;-82
2022/06/18 00:35:01;;;;;;;5.20;4.70;;;;;;;15.31;99.02;100140.78;5072880;28;20384;-83
2022/06/18 00:37:27;;;;;;;6.35;5.03;;;;;;;15.32;98.57;100141.59;5073199;28;20020;-82
2022/06/18 00:39:52;;;;;;;8.23;4.85;;;;;;;15.46;98.63;100160.00;5071438;28;20123;-82
2022/06/18 00:42:24;;;;;;;7.03;4.70;;;;;;;15.36;98.26;100149.22;5071556;28;20028;-82
2022/06/18 00:44:54;;;;;;;6.10;4.35;;;;;;;15.18;99.21;100117.03;5072925;28;20086;-82
2022/06/18 00:47:33;;;;;;;5.65;4.63;;;;;;;15.47;99.05;100164.34;5073051;28;20028;-82
2022/06/18 00:50:12;;;;;;;6.35;4.45;;;;;;;15.45;98.69;100158.31;5072644;28;20109;-82
2022/06/18 00:53:07;;;;;;;7.10;4.90;;;;;;;15.50;98.13;100160.69;5071284;28;20106;-83
2022/06/18 00:55:43;;;;;;;5.35;4.38;;;;;;;15.46;98.34;100158.25;5072837;28;20170;-82
2022/06/18 00:58:11;;;;;;;6.15;4.63;;;;;;;15.48;98.30;100158.16;5071233;28;20027;-82
2022/06/18 01:00:42;;;;;;;6.32;4.90;;;;;;;15.37;98.31;100136.94;5071429;28;20035;-82
2022/06/18 01:03:29;;;;;;;11.20;5.55;;;;;;;15.45;98.22;100148.66;5071369;28;20372;-82
2022/06/18 01:05:58;;;;;;;7.68;5.00;;;;;;;15.31;98.00;100126.81;5071005;28;20127;-82
2022/06/18 01:08:28;;;;;;;6.18;4.90;;;;;;;15.46;98.18;100149.50;5072623;28;20028;-82
2022/06/18 01:10:57;;;;;;;7.72;5.60;;;;;;;15.48;98.25;100158.16;5072261;28;20166;-82
2022/06/18 01:13:27;;;;;;;9.02;4.93;;;;;;;15.42;97.28;100137.50;5072258;28;20028;-82
2022/06/18 01:15:54;;;;;;;;;;;;;;;15.51;97.27;100155.34;5071296;28;20151;-82
2022/06/18 01:18:20;;;;;;;7.03;5.30;;;;;;;15.46;97.42;100141.63;5071173;28;20007;-83
2022/06/18 01:20:51;;;;;;;6.47;5.78;;;;;;;15.50;97.01;100147.56;5071015;28;20031;-82
2022/06/18 01:23:26;;;;;;;9.02;5.40;;;;;;;15.57;97.03;100152.34;5072261;28;20039;-82
2022/06/18 01:25:52;;;;;;;7.40;5.43;;;;;;;15.61;97.05;100151.25;5070607;28;20104;-82
2022/06/18 01:28:18;;;;;;;9.32;5.43;;;;;;;15.61;97.04;100145.16;5072349;28;20039;-82
2022/06/18 01:30:45;;;;;;;9.35;5.80;;;;;;;15.62;97.28;100139.78;5072110;28;20476;-83
2022/06/18 01:33:12;;;;;;;8.23;5.05;;;;;;;15.66;97.48;100140.50;5070575;28;20029;-82
2022/06/18 01:35:41;;;;;;;7.68;4.88;;;;;;;15.69;97.33;100130.66;5070846;28;20025;-82
2022/06/18 01:38:10;;;;;;;6.90;4.80;;;;;;;15.74;97.83;100133.00;5070540;28;20033;-82
2022/06/18 01:41:49;;;;;;;6.28;4.90;;;;;;;15.81;97.55;100133.50;5070378;28;20044;-82
2022/06/18 01:43:46;;;;;;;7.40;4.90;;;;;;;15.72;98.02;100113.88;4990192;28;20042;-82
2022/06/18 01:46:11;;;;;;;8.63;5.40;;;;;;;15.82;97.84;100125.50;4973746;28;20520;-82
2022/06/18 01:48:40;;;;;;;7.50;5.43;;;;;;;15.81;96.92;100120.34;4973920;28;20046;-83
2022/06/18 01:51:12;;;;;;;11.40;5.55;;;;;;;15.87;96.46;100125.22;4989952;28;20570;-82
2022/06/18 01:53:43;;;;;;;7.60;5.25;;;;;;;15.84;96.13;100104.38;4973818;28;20033;-82
2022/06/18 01:56:32;;;;;;;6.10;5.43;;;;;;;15.86;95.98;100103.38;4973736;28;20085;-82
2022/06/18 01:59:07;;;;;;;10.68;6.40;;;;;;;15.89;95.42;100108.44;4973653;28;20045;-82
2022/06/18 02:01:35;;;;;;;8.82;5.97;;;;;;;15.84;95.74;100094.72;4990056;28;20045;-82
2022/06/18 02:04:03;;;;;;;9.45;6.28;;;;;;;15.89;96.07;100097.09;4989781;28;20037;-82
2022/06/18 02:06:30;;;;;;;9.45;7.03;;;;;;;15.96;95.65;100108.88;4989907;28;20062;-82
2022/06/18 02:08:56;;;;;;;9.77;6.90;;;;;;;15.73;95.19;100067.44;4989817;28;20032;-82
2022/06/18 02:11:22;;;;;;;7.90;6.95;;;;;;;16.00;94.26;100109.56;4951257;29;20126;-82
2022/06/18 02:13:55;;;;;;;9.80;6.93;;;;;;;16.03;95.11;100112.84;4951336;29;20122;-82
2022/06/18 02:16:24;;;;;;;8.63;6.57;;;;;;;15.92;95.49;100094.25;4951448;29;20043;-82
2022/06/18 02:18:50;;;;;;;8.27;7.18;;;;;;;16.02;95.27;100110.31;4935348;29;20467;-82
2022/06/18 02:21:21;;;;;;;12.27;8.00;;;;;;;16.00;95.12;100097.25;5018479;28;20045;-82
2022/06/18 02:23:46;;;;;;;;;;;;;;;16.03;94.87;100104.97;5032836;28;20491;-82
2022/06/18 02:26:12;;;;;;;10.23;7.65;;;;;;;16.00;94.82;100099.88;5032131;28;19924;-82
2022/06/18 02:28:41;;;;;;;11.48;7.93;;;;;;;16.04;94.37;100090.88;5049085;28;20049;-82
2022/06/18 02:31:14;;;;;;;12.07;7.93;;;;;;;16.07;94.79;100105.63;5048836;28;20049;-82
2022/06/18 02:33:45;;;;;;;10.13;7.70;;;;;;;16.09;94.51;100103.72;5048959;28;20059;-82
2022/06/18 02:36:18;;;;;;;8.98;7.35;;;;;;;16.01;94.80;100090.22;5048755;28;20040;-82
2022/06/18 02:38:45;;;;;;;9.45;7.68;;;;;;;16.08;94.79;100110.75;5049068;28;20036;-82
2022/06/18 02:41:11;;;;;;;10.13;7.57;;;;;;;16.10;95.74;100115.94;5049084;28;20029;-82
2022/06/18 02:43:39;;;;;;;9.55;7.72;;;;;;;16.08;94.33;100109.91;5070179;28;20119;-82
2022/06/18 02:46:05;;;;;;;9.68;7.45;;;;;;;16.03;93.90;100097.06;5069958;28;20444;-82
2022/06/18 02:48:33;;;;;;;9.07;7.88;;;;;;;16.13;94.55;100105.22;5071334;28;20056;-83
2022/06/18 02:51:00;;;;;;;10.60;6.93;;;;;;;16.17;93.09;100110.19;5070217;28;20037;-83
2022/06/18 02:53:27;;;;;;;8.93;6.88;;;;;;;16.15;92.31;100092.84;5073615;28;20464;-82
2022/06/18 02:55:55;;;;;;;9.82;6.82;;;;;;;16.14;92.37;100105.13;5090833;28;20021;-83
2022/06/18 02:58:24;;;;;;;9.30;7.13;;;;;;;16.19;92.03;100110.94;5074869;28;20111;-83
2022/06/18 03:00:56;;;;;;;10.07;6.75;;;;;;;16.17;92.07;100096.19;5052302;28;20759;-82
2022/06/18 03:03:25;;;;;;;9.07;7.22;;;;;;;16.16;91.54;100105.88;5052256;28;20041;-82
2022/06/18 03:05:54;;;;;;;7.80;6.45;;;;;;;16.08;91.28;100094.16;5051954;28;20052;-83
2022/06/18 03:08:25;;;;;;;9.10;6.38;;;;;;;16.14;91.55;100104.31;5032075;28;20041;-82
2022/06/18 03:13:36;;;;;;;8.45;6.13;;;;;;;16.20;91.89;100104.75;5032432;28;20037;-83
2022/06/18 03:16:02;;;;;;;7.75;6.22;;;;;;;16.25;91.56;100104.44;5032133;28;20048;-83
2022/06/18 03:18:30;;;;;;;8.38;6.00;;;;;;;16.31;91.24;100114.59;5032049;28;20076;-82
2022/06/18 03:21:31;;;;;;;8.85;6.32;;;;;;;16.35;91.09;100107.34;5032022;28;20049;-83
2022/06/18 03:23:56;;;;;;;12.13;6.10;;;;;;;16.34;90.97;100095.97;5031989;28;20033;-83
2022/06/18 03:26:22;;;;;;;6.88;5.85;;;;;;;16.39;90.01;100090.44;5031915;28;20033;-82
2022/06/18 03:28:48;;;;;;;10.82;5.97;;;;;;;16.35;89.84;100084.56;5032103;28;20042;-82
2022/06/18 03:31:13;;;;;;;10.77;6.78;;;;;;;16.36;89.31;100091.50;5031916;28;20041;-83
2022/06/18 03:33:41;;;;;;;7.13;5.60;;;;;;;16.54;89.13;100099.97;5032009;28;20125;-82
2022/06/18 03:36:09;;;;;;;10.68;5.88;;;;;;;16.62;89.31;100105.59;5031765;28;20051;-83
2022/06/18 03:38:35;;;;;;;8.65;6.20;;;;;;;16.53;88.79;100079.06;5036021;28;20043;-83
2022/06/18 03:41:00;;;;;;;6.90;5.35;;;;;;;16.67;88.16;100089.50;5051591;28;20029;-83
2022/06/18 03:43:27;;;;;;;11.30;6.18;;;;;;;16.69;87.56;100099.00;5052986;28;20066;-83
2022/06/18 03:45:58;;;;;;;9.50;5.78;;;;;;;16.67;87.11;100092.97;5069767;28;20475;-82
2022/06/18 03:48:29;;;;;;;10.43;5.22;;;;;;;16.60;86.68;100067.16;5031328;28;20041;-83
2022/06/18 03:50:55;;;;;;;8.23;5.53;;;;;;;16.82;87.14;100101.72;5031646;28;20088;-83
2022/06/18 03:53:21;;;;;;;7.95;4.97;;;;;;;16.84;87.03;100089.28;5031382;28;20053;-83
2022/06/18 03:55:46;;;;;;;7.65;5.57;;;;;;;16.91;86.25;100092.38;5031557;28;20431;-83
2022/06/18 03:58:13;;;;;;;6.80;4.90;;;;;;;16.99;86.08;100091.88;5031557;28;20042;-82
2022/06/18 04:00:38;;;;;;;8.27;5.68;;;;;;;16.93;85.65;100078.16;5031578;28;20033;-83
2022/06/18 04:03:04;;;;;;;6.70;5.20;;;;;;;17.06;85.46;100080.81;5031014;28;20052;-82
2022/06/18 04:05:32;;;;;;;6.78;5.03;;;;;;;17.05;85.42;100062.50;5031906;28;20076;-83
2022/06/18 04:07:57;;;;;;;10.80;5.60;;;;;;;17.16;85.00;100067.91;5034477;28;20047;-83
2022/06/18 04:10:23;;;;;;;7.53;5.15;;;;;;;17.29;84.81;100065.28;5034284;28;20025;-83
2022/06/18 04:12:48;;;;;;;6.63;4.65;;;;;;;17.40;83.73;100075.91;5051087;28;20037;-83
2022/06/18 04:15:15;;;;;;;8.68;5.20;;;;;;;17.40;83.25;100078.53;5050991;28;20507;-82
2022/06/18 04:17:42;;;;;;;10.35;5.35;;;;;;;17.47;83.30;100069.28;5034455;28;20028;-83
2022/06/18 04:20:19;;;;;;;8.88;5.50;;;;;;;17.53;82.62;100068.00;5068825;28;20049;-83
2022/06/18 04:22:44;;;;;;;7.57;5.28;;;;;;;17.57;82.84;100066.84;5073467;28;20387;-83
2022/06/18 04:25:09;;;;;;;8.32;5.32;;;;;;;17.59;81.76;100065.81;5071740;28;20021;-83
2022/06/18 04:27:35;;;;;;;7.25;4.82;;;;;;;17.70;82.18;100055.38;5073487;28;20107;-83
2022/06/18 04:30:00;;;;;;;10.57;5.22;;;;;;;17.76;82.04;100043.59;5071890;28;20021;-82
2022/06/18 04:32:26;;;;;;;5.82;4.95;;;;;;;17.85;80.56;100066.66;5072954;28;20035;-82
2022/06/18 04:34:51;;;;;;;7.55;5.20;;;;;;;17.81;80.62;100053.81;5073471;28;20071;-82
2022/06/18 04:37:16;;;;;;;10.60;4.90;;;;;;;17.89;80.91;100059.38;5072922;28;20040;-82
2022/06/18 04:39:42;;;;;;;8.20;5.25;;;;;;;17.88;80.76;100057.72;5073070;28;20487;-83
2022/06/18 04:42:07;;;;;;;8.50;5.03;;;;;;;18.00;81.20;100079.72;5071786;28;20036;-83
2022/06/18 04:44:33;;;;;;;9.65;5.20;;;;;;;17.91;80.75;100058.34;5071932;28;20025;-82
2022/06/18 04:46:58;;;;;;;6.25;4.72;;;;;;;17.90;80.37;100055.78;5073098;28;20030;-83
2022/06/18 04:49:23;;;;;;;6.32;4.80;;;;;;;17.97;80.68;100054.41;5071430;28;20031;-82
2022/06/18 04:51:49;;;;;;;8.90;5.10;;;;;;;17.99;81.16;100062.19;5072747;28;20052;-83
2022/06/18 04:54:14;;;;;;;6.65;5.05;;;;;;;17.90;81.18;100048.72;5049873;28;20040;-83
2022/06/18 04:56:40;;;;;;;7.30;4.50;;;;;;;18.00;81.48;100048.09;5050175;28;20072;-82
2022/06/18 04:59:05;;;;;;;7.30;4.40;;;;;;;18.20;81.00;100071.22;5050060;28;20044;-83
2022/06/18 05:01:31;;;;;;;7.78;4.47;;;;;;;18.30;81.03;100059.06;5050174;28;20033;-83
2022/06/18 05:03:57;;;;;;;7.40;4.38;;;;;;;18.41;80.01;100047.72;5050190;28;20036;-82
2022/06/18 05:06:23;;;;;;;6.05;4.38;;;;;;;18.54;79.08;100048.53;5049691;28;20551;-83
2022/06/18 05:08:48;;;;;;;5.32;3.92;;;;;;;18.64;78.54;100062.72;5033370;28;20029;-83
2022/06/18 05:11:14;;;;;;;5.88;3.67;;;;;;;18.64;78.44;100053.97;5049896;28;20043;-82
2022/06/18 05:13:40;;;;;;;6.40;3.90;;;;;;;18.69;78.45;100059.75;5049433;28;20385;-81
2022/06/18 05:16:07;;;;;;;5.85;3.88;;;;;;;18.70;78.38;100054.38;5049814;28;20025;-83
2022/06/18 05:18:34;;;;;;;5.70;3.40;;;;;;;18.84;78.76;100056.03;5033558;28;20032;-82
2022/06/18 05:21:00;;;;;;;5.35;4.35;;;;;;;18.93;77.92;100054.50;5033249;28;20033;-82
2022/06/18 05:23:26;;;;;;;5.47;3.92;;;;;;;19.03;78.33;100052.81;5049605;28;20110;-82
2022/06/18 05:25:56;;;;;;;5.60;4.45;;;;;;;19.16;78.56;100035.09;5051661;28;20041;-82
2022/06/18 05:28:22;;;;;;;5.75;4.05;;;;;;;19.16;77.99;100029.81;5050884;28;20052;-82
2022/06/18 05:30:47;;;;;;;5.15;3.97;;;;;;;19.31;77.47;100026.97;5052267;28;20029;-82
2022/06/18 05:33:13;;;;;;;5.95;4.25;;;;;;;19.33;77.02;100031.16;5052063;28;20029;-82
2022/06/18 05:35:40;;;;;;;5.53;3.83;;;;;;;19.48;76.73;100052.09;5050781;28;20036;-82
2022/06/18 05:38:06;;;;;;;4.85;3.65;;;;;;;19.68;76.41;100059.34;5052052;28;20021;-82
2022/06/18 05:40:32;;;;;;;6.40;3.42;;;;;;;19.88;74.72;100047.19;5050699;28;20032;-83
2022/06/18 05:42:57;;;;;;;4.43;3.70;;;;;;;20.22;73.13;100029.47;5052151;28;20480;-82
2022/06/18 05:45:23;;;;;;;4.60;3.38;;;;;;;20.80;70.87;100024.72;5051856;28;20036;-82
2022/06/18 05:47:49;;;;;;;4.68;3.50;;;;;;;22.06;68.50;100035.19;5052056;28;20036;-82
2022/06/18 05:50:17;;;;;;;5.40;3.75;;;;;;;22.64;64.86;100033.47;5050356;28;20025;-82
2022/06/18 05:52:43;;;;;;;5.10;3.33;;;;;;;23.67;61.16;100029.28;5052067;28;20029;-82
2022/06/18 05:55:08;;;;;;;3.70;3.40;;;;;;;24.62;56.30;100034.19;5050508;28;20571;-83
2022/06/18 05:57:34;;;;;;;5.97;3.70;;;;;;;25.51;52.76;100027.88;5051953;28;20021;-83
2022/06/18 06:00:05;;;;;;;5.22;3.50;;;;;;;26.02;50.76;100022.63;5052014;28;20025;-83
2022/06/18 06:02:31;;;;;;;3.30;3.00;;;;;;;26.29;49.08;100035.69;5051632;28;20025;-83
2022/06/18 06:04:56;;;;;;;4.57;3.22;;;;;;;26.56;48.00;100023.13;5051726;28;20056;-83
2022/06/18 06:07:24;;;;;;;4.93;2.88;;;;;;;26.58;48.29;100037.13;5065845;28;20376;-83
2022/06/18 06:12:35;;;;;;;5.55;3.35;;;;;;;27.31;45.80;100023.78;5071893;28;20036;-83
2022/06/18 06:15:01;;;;;;;4.03;3.20;;;;;;;27.58;45.04;100027.88;5071700;28;20024;-83
2022/06/18 06:17:27;;;;;;;6.45;2.88;;;;;;;27.76;44.69;100024.97;5070125;28;20025;-83
2022/06/18 06:20:00;;;;;;;8.25;3.15;;;;;;;28.41;43.24;100015.81;5071901;28;20099;-83
2022/06/18 06:22:26;;;;;;;4.00;2.90;;;;;;;29.33;41.91;100013.88;5071539;28;20039;-82
2022/06/18 06:24:52;;;;;;;5.03;3.03;;;;;;;29.85;39.96;100014.78;5071710;28;20468;-83
2022/06/18 06:27:18;;;;;;;2.95;2.65;;;;;;;30.44;39.38;100009.28;5073884;28;20024;-84
2022/06/18 06:29:43;;;;;;;3.10;2.50;;;;;;;31.77;36.70;100007.56;5075622;28;20029;-81
2022/06/18 06:32:08;;;;;;;2.92;2.58;;;;;;;34.77;31.27;99992.63;5075614;28;20041;-82
2022/06/18 06:34:34;;;;;;;2.92;2.38;;;;;;;37.83;26.85;99998.03;5075442;28;20029;-82
2022/06/18 06:36:59;;;;;;;4.85;2.70;;;;;;;40.77;22.95;99997.03;5075613;28;20025;-82
2022/06/18 06:39:24;;;;;;;4.72;2.60;;;;;;;42.15;20.18;99973.06;5075170;28;20112;-82
2022/06/18 06:41:50;;;;;;;3.85;2.40;;;;;;;42.54;20.20;99980.78;5075438;28;20379;-82
2022/06/18 06:44:15;;;;;;;4.10;2.38;;;;;;;44.63;18.31;99988.13;5075302;28;20108;-82
2022/06/18 06:46:41;;;;;;;3.63;2.45;;;;;;;45.95;16.95;99976.72;5075155;28;20488;-82
2022/06/18 06:49:07;;;;;;;3.72;2.40;;;;;;;47.22;15.68;99974.50;5075003;28;20376;-83
2022/06/18 06:51:36;;;;;;;3.97;2.20;;;;;;;48.09;14.58;99980.09;5075031;28;20044;-82
2022/06/18 06:54:02;;;;;;;4.63;2.35;;;;;;;48.84;13.83;99979.28;5074972;28;20031;-83
2022/06/18 06:59:11;;;;;;;2.38;2.17;;;;;;;49.35;13.44;99985.31;5074996;28;20051;-83
2022/06/18 07:01:37;;;;;;;2.17;1.77;;;;;;;50.68;12.10;99971.66;5075138;28;20464;-82
2022/06/18 07:04:09;;;;;;;1.90;1.70;;;;;;;48.14;13.61;99974.44;5075073;28;20427;-82
2022/06/18 07:06:35;;;;;;;2.17;1.63;;;;;;;45.05;15.29;99962.72;5092046;28;20047;-83
2022/06/18 07:09:03;;;;;;;3.42;1.83;;;;;;;43.35;16.43;99953.22;5092763;28;20092;-82
2022/06/18 07:11:28;;;;;;;2.15;1.90;;;;;;;41.68;17.83;99952.16;5092429;28;20532;-82
2022/06/18 07:13:54;;;;;;;4.13;1.98;;;;;;;40.47;18.87;99937.53;5092646;28;20051;-82
2022/06/18 07:16:19;;;;;;;3.05;2.10;;;;;;;39.73;19.83;99937.34;5092419;28;20039;-82
2022/06/18 07:18:45;;;;;;;2.25;1.90;;;;;;;40.05;19.26;99934.69;5092603;28;20051;-82
2022/06/18 07:21:13;;;;;;;4.60;2.25;;;;;;;39.92;20.05;99928.56;5092435;28;20036;-82
2022/06/18 07:23:40;;;;;;;3.30;2.60;;;;;;;40.17;19.42;99940.00;5075410;28;20093;-82
2022/06/18 07:26:06;;;;;;;3.25;2.10;;;;;;;40.51;18.84;99925.00;5092242;28;20194;-82
2022/06/18 07:28:31;;;;;;;2.88;1.90;;;;;;;41.18;18.98;99942.66;5075037;28;20123;-82
2022/06/18 07:30:57;;;;;;;2.10;1.90;;;;;;;43.22;16.92;99928.34;5075245;28;20032;-82
2022/06/18 07:33:25;;;;;;;2.70;1.98;;;;;;;45.05;15.31;99939.91;5091900;28;20105;-82
2022/06/18 07:35:51;;;;;;;2.93;2.03;;;;;;;47.06;14.10;99929.06;5092258;28;20028;-82
2022/06/18 07:38:17;;;;;;;4.43;2.33;;;;;;;47.18;13.23;99929.34;5077171;28;20051;-82
2022/06/18 07:40:47;;;;;;;3.85;2.00;;;;;;;47.45;13.35;99935.97;5074233;28;20024;-82
2022/06/18 07:43:20;;;;;;;2.38;1.70;;;;;;;48.93;12.68;99938.66;5074352;28;20056;-83
2022/06/18 07:45:46;;;;;;;2.85;1.85;;;;;;;50.68;11.10;99927.28;5074294;28;20028;-82
2022/06/18 07:48:13;;;;;;;3.40;2.30;;;;;;;52.50;10.24;99940.94;5072947;28;20039;-83
2022/06/18 07:50:43;;;;;;;3.67;2.22;;;;;;;53.64;9.47;99941.03;5069090;28;20070;-83
2022/06/18 07:53:15;;;;;;;1.85;1.75;;;;;;;54.32;9.39;99949.34;5064872;28;20447;-83
2022/06/18 07:55:40;;;;;;;3.95;2.10;;;;;;;55.20;8.90;99941.56;5073322;28;20494;-83
2022/06/18 07:58:05;;;;;;;3.22;1.88;;;;;;;55.25;8.67;99940.47;5071127;28;20040;-84
2022/06/18 08:00:31;;;;;;;2.45;1.80;;;;;;;54.54;8.85;99922.84;5072511;28;20070;-83
2022/06/18 08:02:56;;;;;;;4.32;1.52;;;;;;;53.19;9.36;99939.28;5072561;28;20032;-85
2022/06/18 08:05:25;;;;;;;2.40;1.65;;;;;;;52.52;9.13;99927.53;5072287;28;20023;-83
2022/06/18 08:07:51;;;;;;;4.50;1.85;;;;;;;50.57;10.03;99927.97;5093522;28;20109;-83
2022/06/18 08:10:17;;;;;;;2.45;1.77;;;;;;;50.22;10.85;99905.91;5075953;28;20023;-83
2022/06/18 08:12:42;;;;;;;4.63;1.88;;;;;;;51.68;9.60;99907.47;5075836;28;20460;-83
2022/06/18 08:15:09;;;;;;;2.00;1.35;;;;;;;51.94;9.63;99910.00;5093933;28;20027;-83
2022/06/18 08:17:36;;;;;;;2.78;1.58;;;;;;;49.07;10.47;99899.81;5093583;28;20028;-83
2022/06/18 08:20:03;;;;;;;4.93;1.73;;;;;;;45.15;12.61;99882.03;5093729;28;20547;-82
2022/06/18 08:22:29;;;;;;;2.72;1.50;;;;;;;42.28;15.26;99884.16;5093396;28;20032;-82
2022/06/18 08:24:55;;;;;;;3.85;1.80;;;;;;;40.35;16.13;99885.84;5075610;28;20028;-82
2022/06/18 08:27:21;;;;;;;1.50;1.40;;;;;;;39.07;17.64;99880.13;5075189;28;20360;-82
2022/06/18 08:29:47;;;;;;;3.10;1.90;;;;;;;38.03;18.24;99873.38;5093801;28;20027;-82
2022/06/18 08:32:13;;;;;;;3.40;1.45;;;;;;;36.92;19.23;99873.63;5093594;28;20061;-82
2022/06/18 08:34:38;;;;;;;2.50;1.92;;;;;;;36.13;20.33;99873.09;5075151;28;20028;-82
2022/06/18 08:37:06;;;;;;;3.85;2.50;;;;;;;35.28;21.53;99880.53;5075180;28;20516;-82
2022/06/18 08:39:32;;;;;;;4.45;1.85;;;;;;;34.40;22.22;99855.38;5093296;28;20035;-82
2022/06/18 08:42:00;;;;;;;3.60;1.55;;;;;;;34.01;23.05;99867.34;5093501;28;20028;-82
2022/06/18 08:44:44;;;;;;;3.27;1.70;;;;;;;33.86;22.78;99847.88;5093095;28;20019;-82
2022/06/18 08:47:27;;;;;;;6.90;2.05;;;;;;;33.58;23.27;99850.94;5093176;28;20031;-82
2022/06/18 08:50:28;;;;;;;4.97;1.55;;;;;;;33.46;23.96;99846.25;5092432;28;20058;-82
2022/06/18 08:53:21;;;;;;;4.13;1.75;;;;;;;33.06;23.95;99834.75;4991126;28;20046;-82
2022/06/18 08:56:09;;;;;;;1.92;1.42;;;;;;;32.82;24.75;99846.22;4974672;28;20513;-82
2022/06/18 08:58:40;;;;;;;2.00;1.42;;;;;;;32.51;24.99;99826.16;4990794;28;20116;-82
2022/06/18 09:02:03;;;;;;;3.28;1.58;;;;;;;32.30;24.74;99841.50;4974710;28;20089;-82
2022/06/18 09:04:48;;;;;;;5.72;1.50;;;;;;;32.10;24.75;99834.47;4932642;29;20058;-82
2022/06/18 09:07:49;;;;;;;1.67;1.23;;;;;;;31.83;24.65;99830.88;4932958;29;20123;-82
2022/06/18 09:10:24;;;;;;;2.17;1.55;;;;;;;31.72;24.83;99819.66;4932932;29;20092;-82
2022/06/18 09:12:56;;;;;;;1.77;1.60;;;;;;;31.67;25.17;99822.16;4932843;29;20043;-82
2022/06/18 09:15:29;;;;;;;1.35;1.23;;;;;;;31.55;25.24;99834.56;4932629;29;20047;-83
2022/06/18 09:18:04;;;;;;;1.40;1.30;;;;;;;31.47;25.93;99824.78;4916629;29;20163;-82
2022/06/18 09:20:35;;;;;;;2.47;1.75;;;;;;;31.44;25.42;99824.41;4913466;29;20067;-82
2022/06/18 09:23:31;;;;;;;3.53;1.70;;;;;;;31.16;24.54;99808.31;4913069;29;20079;-82
2022/06/18 09:25:59;;;;;;;4.20;1.35;;;;;;;31.09;25.51;99820.91;4897965;29;20369;-82
2022/06/18 09:28:27;;;;;;;2.53;1.52;;;;;;;31.06;25.25;99817.59;4971028;28;20038;-83
2022/06/18 09:31:06;;;;;;;1.80;1.60;;;;;;;30.99;25.45;99808.66;4993114;28;20041;-82
2022/06/18 09:33:40;;;;;;;1.20;1.10;;;;;;;30.84;25.74;99794.50;4993185;28;20032;-82
2022/06/18 09:36:40;;;;;;;2.55;1.60;;;;;;;30.83;26.39;99795.56;5029235;28;20041;-82
2022/06/18 09:39:23;;;;;;;1.80;1.60;;;;;;;30.87;25.96;99807.56;5029025;28;20448;-82
2022/06/18 09:41:59;;;;;;;1.50;1.40;;;;;;;30.86;26.86;99794.34;5012162;28;20037;-82
2022/06/18 09:44:31;;;;;;;2.58;1.58;;;;;;;30.90;27.09;99795.59;5029021;28;20096;-82
2022/06/18 09:47:02;;;;;;;3.42;1.70;;;;;;;30.84;27.12;99794.50;5029546;28;20113;-82
2022/06/18 09:49:29;;;;;;;2.28;1.55;;;;;;;30.84;26.73;99793.69;5012918;28;20135;-82
2022/06/18 09:52:05;;;;;;;5.25;1.95;;;;;;;30.81;26.38;99803.00;5055156;28;20123;-82
2022/06/18 09:54:52;;;;;;;2.83;1.60;;;;;;;30.67;25.81;99790.47;5092152;28;20031;-82
2022/06/18 09:57:22;;;;;;;2.80;1.40;;;;;;;30.51;26.15;99778.19;5092207;28;20034;-82
2022/06/18 10:00:04;;;;;;;1.98;1.40;;;;;;;30.64;26.77;99783.66;5073521;28;20407;-83
2022/06/18 10:02:33;;;;;;;3.83;1.50;;;;;;;30.61;26.79;99775.97;5091656;28;20034;-82
2022/06/18 10:07:50;;;;;;;;;;;;;;;30.71;27.31;99784.50;5092033;28;20054;-82
2022/06/18 10:10:20;;;;;;;2.35;1.48;;;;;;;30.66;26.67;99762.75;5073881;28;19912;-82
2022/06/18 10:12:48;;;;;;;2.28;1.40;;;;;;;30.68;28.36;99765.25;5073520;28;20461;-82
2022/06/18 10:15:15;;;;;;;4.22;1.70;;;;;;;30.67;27.63;99763.59;5091838;28;20463;-82
2022/06/18 10:17:56;;;;;;;4.32;1.52;;;;;;;30.78;27.00;99776.50;5091898;28;20028;-82
2022/06/18 10:20:33;;;;;;;4.25;1.60;;;;;;;30.80;27.38;99760.97;5091981;28;20024;-82
2022/06/18 10:23:17;;;;;;;2.65;1.60;;;;;;;30.88;27.54;99774.25;5091819;28;20071;-82
2022/06/18 10:26:09;;;;;;;2.47;1.70;;;;;;;30.87;26.97;99767.22;5092087;28;20028;-82
2022/06/18 10:28:53;;;;;;;2.10;1.70;;;;;;;30.85;26.38;99763.09;5072713;28;20552;-82
2022/06/18 10:31:39;;;;;;;1.52;1.40;;;;;;;30.77;27.41;99756.84;5091734;28;20024;-82
2022/06/18 10:34:09;;;;;;;1.83;1.42;;;;;;;30.78;27.84;99755.00;5091901;28;20020;-82
2022/06/18 10:36:46;;;;;;;4.63;1.75;;;;;;;30.77;28.48;99745.28;5091642;28;20032;-82
2022/06/18 10:39:18;;;;;;;4.75;1.75;;;;;;;30.79;27.63;99748.56;5073560;28;20024;-82
2022/06/18 10:41:58;;;;;;;3.50;1.70;;;;;;;30.68;26.78;99735.69;5091544;28;20111;-82
2022/06/18 10:44:33;;;;;;;2.22;1.55;;;;;;;30.66;27.85;99732.34;5091548;28;20081;-82
2022/06/18 10:47:06;;;;;;;1.63;1.52;;;;;;;30.69;28.05;99731.97;5073643;28;20028;-82
2022/06/18 10:49:32;;;;;;;2.80;2.00;;;;;;;30.67;28.83;99732.16;5073312;28;20428;-82
2022/06/18 10:51:59;;;;;;;1.70;1.60;;;;;;;30.73;28.11;99725.19;5091555;28;20116;-82
2022/06/18 10:54:36;;;;;;;2.63;1.60;;;;;;;30.74;27.13;99730.34;5073365;28;20387;-82
2022/06/18 10:57:03;;;;;;;1.83;1.40;;;;;;;30.77;28.10;99721.91;5088172;28;20020;-84
2022/06/18 10:59:32;;;;;;;1.70;1.60;;;;;;;30.76;28.64;99720.25;5070584;28;20426;-85
2022/06/18 11:02:14;;;;;;;1.75;1.42;;;;;;;30.72;27.81;99710.94;5069475;28;20074;-85
2022/06/18 11:04:41;;;;;;;1.92;1.83;;;;;;;30.72;28.41;99718.09;5052558;28;20029;-85
2022/06/18 11:07:12;;;;;;;;;;;;;;;30.75;28.35;99726.63;5065596;28;20128;-85
2022/06/18 11:09:45;;;;;;;2.88;1.70;;;;;;;30.70;28.20;99712.94;5066012;28;19960;-84
2022/06/18 11:12:28;;;;;;;1.55;1.45;;;;;;;30.61;27.61;99713.31;5051299;28;20384;-84
2022/06/18 11:14:55;;;;;;;2.05;1.48;;;;;;;30.63;28.15;99705.88;5052876;28;20115;-84
2022/06/18 11:17:25;;;;;;;2.00;1.63;;;;;;;30.63;28.63;99695.94;5069777;28;20472;-85
2022/06/18 11:19:51;;;;;;;1.75;1.38;;;;;;;30.57;28.30;99702.94;5086538;28;20468;-84
2022/06/18 11:22:26;;;;;;;1.65;1.55;;;;;;;30.61;28.76;99706.06;5086680;28;20029;-85
2022/06/18 11:25:00;;;;;;;2.72;1.50;;;;;;;30.60;27.65;99690.16;5053916;28;20029;-84
2022/06/18 11:27:37;;;;;;;1.70;1.55;;;;;;;30.64;28.88;99684.19;5054157;28;20060;-85
2022/06/18 11:30:21;;;;;;;1.77;1.40;;;;;;;30.57;28.64;99659.13;5059703;28;20024;-85
2022/06/18 11:32:49;;;;;;;2.00;1.60;;;;;;;30.69;28.02;99673.66;5072130;28;20479;-84
2022/06/18 11:35:14;;;;;;;1.60;1.45;;;;;;;30.77;27.26;99683.44;5073751;28;20336;-85
2022/06/18 11:37:41;;;;;;;1.73;1.60;;;;;;;30.70;27.49;99656.47;5074032;28;20035;-84
2022/06/18 11:40:07;;;;;;;2.30;1.63;;;;;;;30.79;28.20;99660.66;5071406;28;20048;-84
2022/06/18 11:43:14;;;;;;;2.08;1.50;;;;;;;30.80;27.90;99666.88;5070999;28;20400;-85
2022/06/18 11:45:50;;;;;;;1.98;1.45;;;;;;;30.74;27.37;99657.75;4995173;28;20069;-84
2022/06/18 11:48:25;;;;;;;2.35;1.67;;;;;;;30.70;28.05;99637.66;5011710;28;20184;-84
2022/06/18 11:51:06;;;;;;;1.67;1.58;;;;;;;30.74;27.25;99646.19;5010836;28;20033;-83
2022/06/18 11:53:50;;;;;;;6.03;1.85;;;;;;;30.73;28.00;99644.53;4994810;28;20037;-83
2022/06/18 11:56:26;;;;;;;2.35;1.45;;;;;;;30.72;27.22;99637.44;5011560;28;20038;-84